AirNav   Duncan Aviation - Near you to keep you flying
 
 521 users online  

T00 Chambers County Airport
Anahuac, Texas, USA

GOING TO ANAHUAC?


FAA INFORMATION EFFECTIVE 16 JUNE 2022

Location

FAA Identifier: T00
Lat/Long: 29-46-11.3332N 094-39-48.5535W
29-46.188887N 094-39.809225W
29.7698148,-94.6634871
(estimated)
Elevation: 21.2 ft. / 6.5 m (surveyed)
Variation: 05E (1995)
From city: 1 mile E of ANAHUAC, TX
Time zone: UTC -5 (UTC -6 during Standard Time)
Zip code: 77514

Airport Operations

Airport use: Open to the public
Activation date: 10/1978
Control tower: no
ARTCC: HOUSTON CENTER
FSS: MONTGOMERY COUNTY FLIGHT SERVICE STATION
NOTAMs facility: CXO (NOTAM-D service available)
Attendance: MON-FRI 0800-1700
Wind indicator: lighted
Segmented circle: yes
Lights: DUSK-DAWN. MIRL RWY 12/30 PRESET LOW INTST; TO INCR INTST ACTVT - CTAF.
Beacon: white-green (lighted land airport)
Operates sunset to sunrise.

Airport Communications

CTAF: 122.9
HOUSTON APPROACH: 134.45 [0600-0000]
HOUSTON DEPARTURE: 134.45 [0600-0000]
BLTWY RNAV DP: 134.45
BLUEBELL STAR: 124.225
BORRN RNAV DP: 134.45
CESAN STAR: 121.3
DREMR DP: 134.45
HOODO RNAV DP: 134.45
HUDZY STAR: 120.05
INDIE RNAV DP: 134.45
KARRR RNAV DP: 134.45
LURIC DP: 134.45
MMALT RNAV DP: 134.45
OHIIO STAR: 120.05
PALACIOS DP: 134.45
STRYA DP: 134.45
STYCK DP: 134.45
TKNIQ STAR: 119.625
WAPPL STAR: 120.05
WATFO DP: 134.45
WYLSN RNAV DP: 134.45
WX AWOS-3PT at T78 (19 nm N): 120.775 (936-587-4150)

Airport Services

Fuel available: 100LL JET-A JET-A1+
100LL:FUEL 24 HR SELF-SERVE.
Parking: tiedowns
Bottled oxygen: NONE
Bulk oxygen: NONE

Runway Information

Runway 12/30

Dimensions: 3005 x 60 ft. / 916 x 18 m
Surface: asphalt, in poor condition
EXTSV CRACKING.
Weight bearing capacity: 
Single wheel: 13.0
Runway edge lights: medium intensity
RUNWAY 12  RUNWAY 30
Latitude: 29-46.363987N29-46.053815N
Longitude: 094-39.966058W094-39.522763W
Elevation: 20.4 ft.20.4 ft.
Traffic pattern: leftright
Runway heading: 124 magnetic, 129 true304 magnetic, 309 true
Markings: nonprecision, in good conditionnonprecision, in good condition
Visual slope indicator: 2-light PAPI on left (4.00 degrees glide path)
Touchdown point: yes, no lightsyes, no lights
Obstructions: 45 ft. pole, 882 ft. from runway, 160 ft. left of centerline, 15:1 slope to clear15 ft. road, 530 ft. from runway, 280 ft. left of centerline, 22:1 slope to clear

Runway 17/35

Dimensions: 1900 x 300 ft. / 579 x 91 m
Surface: turf, in good condition
RUNWAY 17  RUNWAY 35
Latitude: 29-46.313965N29-46.000500N
Longitude: 094-39.911733W094-39.911733W
Elevation: 20.0 ft.20.0 ft.
Traffic pattern: leftright
Runway heading: 175 magnetic, 180 true355 magnetic, 000 true
Markings: none, in good conditionnone, in good condition
Touchdown point: yes, no lightsyes, no lights
Obstructions: 60 ft. trees, 890 ft. from runway, 90 ft. left of centerline, 14:1 slope to clear17 ft. road, 230 ft. from runway, 13:1 slope to clear

Airport Ownership and Management from official FAA records

Ownership: Publicly-owned
Owner: CHAMBERS COUNTY
PO BOX 938
ANAHUAC, TX 77514
Phone 409-267-2400
Manager: RONNIE BROWN
PO BOX 938
ANAHUAC, TX 77514
Phone 409-267-2719

Airport Operational Statistics

Aircraft based on the field: 9
Single engine airplanes: 8
Multi engine airplanes: 1
    
Aircraft operations: avg 46/week *
67% local general aviation
33% transient general aviation
* for 12-month period ending 23 April 2020

Additional Remarks

RWY 17/35 SOFT WHEN WET.
RWY 17, PAPI RWY 12 IN RWY 17 APCH, DO NOT LAND BFR XNG RWY 12.
FOR CD CTC HOUSTON APCH AT 281-443-5844 TO CNL IFR CALL 281-443-5888.

Instrument Procedures

NOTE: All procedures below are presented as PDF files. If you need a reader for these files, you should download the free Adobe Reader.

NOT FOR NAVIGATION. Please procure official charts for flight.
FAA instrument procedures published for use from 16 June 2022 at 0901Z to 14 July 2022 at 0900z.

 
STARs - Standard Terminal Arrivals
BLUBELL FOUR   download (300KB)
CESAN FOUR (RNAV)   2 pages: [1] [2] (398KB)
HUDZY FOUR   2 pages: [1] [2] (330KB)
OHIIO FOUR   download (287KB)
TKNIQ THREE (RNAV)   2 pages: [1] [2] (328KB)
TSHRT ONE ARRIVAL   2 pages: [1] [2] (375KB)
WAPPL SIX (RNAV)   2 pages: [1] [2] (376KB)
WAPPL SIX (RNAV), CONT.2   download (281KB)
 
IAPs - Instrument Approach Procedures
RNAV (GPS) RWY 12   download (197KB)
 
Departure Procedures
BLTWY SEVEN (RNAV)   download (153KB)
BORRN FOUR (RNAV)   2 pages: [1] [2] (295KB)
HOODO SEVEN (RNAV)   download (195KB)
INDIE EIGHT (RNAV)   download (180KB)
KARRR SIX (RNAV)   2 pages: [1] [2] (252KB)
LURIC EIGHT (RNAV)   download (201KB)
MMALT FIVE (RNAV)   download (206KB)
PALACIOS TWO   2 pages: [1] [2] (305KB)
STRYA EIGHT (RNAV)   download (191KB)
STYCK EIGHT (RNAV)   download (179KB)
WATFO FIVE (RNAV)   download (159KB)
WYLSN EIGHT (RNAV)   download (164KB)
NOTE: Special Take-Off Minimums/Departure Procedures apply   download (70KB)

Other nearby airports with instrument procedures:

54T - RWJ Airpark (10 nm W)
KHPY - Baytown Airport (15 nm W)
T78 - Liberty Municipal Airport (19 nm N)
T41 - La Porte Municipal Airport (22 nm W)
KEFD - Ellington Airport (28 nm W)
 
Loc | Ops | Rwys | IFR | FBO | Links
Com | Nav | Svcs | Stats | Notes
Area around T00 (Chambers County Airport)
 
Road maps at: MapQuest Bing Google
 
Aerial photo
WARNING: Photo may not be current or correct
Aerial photo of T00 (Chambers County Airport)
Photo taken 04-Mar-2007
on final for runway 30

Do you have a better or more recent aerial photo of Chambers County Airport that you would like to share? If so, please send us your photo.

 
Sectional chart

 
Airport distance calculator
Flying to Chambers County Airport? Find the distance to fly.

From to T00

Sunrise and sunset
Times for 25-Jun-2022
 Local
(UTC-5)
 Zulu
(UTC)
Morning civil twilight05:5310:53
Sunrise06:2111:21
Sunset20:2201:22
Evening civil twilight20:4901:49

Current date and time
Zulu (UTC)  25-Jun-2022 05:53:16
Local (UTC-5)  25-Jun-2022 00:53:16
 
METAR
KT41 
22nm W 
250535Z AUTO 00000KT 10SM CLR 25/07 A2996 RMK AO2 T02540068
KEFD 
28nm W 
250454Z 17010KT 10SM CLR 26/23 A2994
KBMT 
29nm NE 
250530Z AUTO 00000KT 10SM CLR 26/24 A2995 RMK AO2 T02570235
KGLS 
32nm S 
250452Z AUTO 18013KT 10SM CLR 30/24 A2995 RMK AO2 SLP142 T03000239
KHOU 
33nm W 
250453Z 20004KT 10SM CLR 27/23 A2994 RMK AO2 SLP143 T02670228
KLVJ 
34nm SW 
250453Z AUTO 00000KT 10SM CLR 26/23 A2996 RMK AO2 SLP144 T02610228
KBPT 
35nm E 
250453Z 21003KT 10SM CLR 26/23 A2994 RMK AO2 SLP140 T02610233
KIAH 
39nm W 
250453Z 20006KT 10SM CLR 28/22 A2994 RMK AO2 SLP137 T02830217
K6R3 
39nm NW 
250535Z AUTO 00000KT 7SM CLR 25/23 A2996 RMK AO2 T02530234
TAF
KEFD 
28nm W 
250400Z 2504/2610 18006KT 9999 FEW011 QNH2992INS BECMG 2600/2601 15015KT 9999 SKC QNH2993INS BECMG 2606/2607 VRB06KT 9000 BR SKC QNH3002INS TX35/2521Z TN24/2511Z
KGLS 
32nm S 
241722Z 2418/2518 22008KT P6SM SCT026 FM242000 18012KT P6SM FEW025 FEW250 FM250900 22010KT P6SM FEW250 FM251600 18009KT P6SM FEW020 FEW200
KHOU 
33nm W 
250300Z 2503/2524 18008KT P6SM FEW250 FM250400 VRB05KT P6SM FEW020 FEW160 FEW250 FM251500 22006KT P6SM FEW035 FEW050 FEW250 FM251800 19007KT P6SM SCT060 SCT080 SCT120 FM252200 16012KT P6SM FEW080 FEW120
KBPT 
35nm E 
241722Z 2418/2518 24007KT P6SM FEW050 FM242000 19009KT P6SM FEW060 FM250200 VRB05KT P6SM SCT250
NOTAMs
Click for the latest NOTAMs
NOTAMs are issued by the DoD/FAA and will open in a separate window not controlled by AirNav.

 

 
 

FBO, Fuel Providers, and Aircraft Ground Support

  
 Business Name 
 
 Contact 
 
 Services / Description 
 
Fuel Prices
 
Comments
  
Chambers County Anahuac Airport 409-267-2719
no information available

If you are affiliated with Chambers County Anahuac Airport and would like to show here your services, contact info, web link, logo, and more, click here
100LL Jet A
SS $4.50 $3.80 
 Updated 31-Mar-2022
 
   write
SS=Self service
Update Fuel Prices
 

Would you like to see your business listed on this page?

 If your business provides an interesting product or service to pilots, flight crews, aircraft, or users of the Chambers County Airport, you should consider listing it here.  To start the listing process, click on the button below
 
Add a business
 

Other Pages about Chambers County Airport

www.co.chambers.tx.us/...
 
Update a link
 
Copyright © AirNav, LLC. All rights reserved. Privacy Policy  Contact